Panama City, Florida
Current Conditions -  °F | °C
As of 9:58 PM on Saturday 24 Jan 2015 (Local Time) from KPAM Reporting Station
Clear Clear  
Wind Chill: 39°   Ceiling: Unl
Heat Index: 43°   Visibility: 10mi
Dew Point: 40°   Wind: 6mph
Humidity: 88%   Direction: 310°NW
Pressure: 30.05"   Gusts: NA
Location:  30.16°N, 85.66°W
Report Text: KPAM 250358Z AUTO 31005KT 10SM CLR 06/04 A3005 RMK AO2 SLP179 T00610042 $
Loading
Personal Weather Stations






























Interactive Weather Map New forecast layout! Learn more

10-Day Weather Forecast

Advertisements
Track Severe Weather on mobile